Time;durP1;ratioP1;P1;durP2;ratioP2;P2;SDS_P1;SDS_P2;PMS_P1;PMS_P2;Temp;Humidity;BMP_temperature;BMP_pressure;BME280_temperature;BME280_humidity;BME280_pressure;Samples;Min_cycle;Max_cycle;Signal;HPM_P1;HPM_P2
2022/08/26 00:00:44;;;;;;;8.43;6.77;;;;;;;20.46;66.28;100318.42;1726897;82;20989;-67
2022/08/26 00:03:12;;;;;;;8.25;6.75;;;;;;;20.42;66.38;100321.63;1734613;82;21477;-68
2022/08/26 00:05:40;;;;;;;8.78;7.97;;;;;;;20.38;66.58;100316.44;1733009;81;20980;-68
2022/08/26 00:08:08;;;;;;;10.48;7.35;;;;;;;20.35;66.86;100323.70;1725589;82;21541;-68
2022/08/26 00:10:35;;;;;;;7.62;6.65;;;;;;;20.33;66.84;100319.63;1720078;82;21493;-67
2022/08/26 00:13:01;;;;;;;7.33;6.58;;;;;;;20.30;66.92;100323.64;1727377;82;20986;-67
2022/08/26 00:15:29;;;;;;;7.92;6.95;;;;;;;20.27;67.33;100316.05;1739999;81;21543;-68
2022/08/26 00:17:58;;;;;;;7.60;6.92;;;;;;;20.26;67.23;100315.75;1734164;82;21413;-68
2022/08/26 00:20:28;;;;;;;8.13;6.10;;;;;;;20.27;67.33;100309.80;1737650;82;21059;-68
2022/08/26 00:22:55;;;;;;;7.08;6.37;;;;;;;20.27;67.41;100313.34;1706840;82;20969;-68
2022/08/26 00:25:22;;;;;;;8.75;7.03;;;;;;;20.27;67.68;100316.05;1730268;82;20973;-70
2022/08/26 00:27:49;;;;;;;7.60;7.00;;;;;;;20.26;67.99;100308.17;1736345;82;21159;-72
2022/08/26 00:30:21;;;;;;;7.00;6.42;;;;;;;20.04;68.00;100277.87;1735692;82;20980;-68
2022/08/26 00:32:47;;;;;;;8.25;7.25;;;;;;;20.22;68.12;100311.92;1732546;82;21600;-68
2022/08/26 00:35:14;;;;;;;7.60;6.78;;;;;;;20.21;68.22;100311.63;1736939;82;21036;-68
2022/08/26 00:37:41;;;;;;;9.68;7.85;;;;;;;20.21;68.15;100308.92;1737496;82;21487;-69
2022/08/26 00:40:19;;;;;;;7.00;6.50;;;;;;;20.19;68.23;100305.65;1737627;82;21513;-67
2022/08/26 00:42:46;;;;;;;9.45;6.58;;;;;;;20.18;68.35;100305.37;1737318;82;21052;-67
2022/08/26 00:45:14;;;;;;;8.15;7.33;;;;;;;20.16;68.51;100307.53;1733819;81;20993;-69
2022/08/26 00:47:51;;;;;;;6.80;6.20;;;;;;;20.13;68.82;100308.02;1727175;82;21044;-67
2022/08/26 00:50:25;;;;;;;7.95;7.25;;;;;;;20.08;69.07;100303.89;1755059;81;21074;-67
2022/08/26 00:52:54;;;;;;;9.50;6.87;;;;;;;20.01;69.26;100300.84;1738218;81;20995;-69
2022/08/26 00:55:37;;;;;;;7.17;6.37;;;;;;;19.94;69.63;100297.51;1746327;82;20942;-71
2022/08/26 00:58:06;;;;;;;7.97;7.28;;;;;;;19.91;70.03;100300.73;1728246;82;21020;-68
2022/08/26 01:00:34;;;;;;;8.30;7.50;;;;;;;19.87;70.04;100303.63;1730126;81;21111;-68
2022/08/26 01:03:02;;;;;;;8.38;6.90;;;;;;;19.83;70.26;100309.27;1730658;82;21060;-68
2022/08/26 01:05:29;;;;;;;7.90;6.80;;;;;;;19.80;70.40;100300.31;1739198;82;21092;-68
2022/08/26 01:07:55;;;;;;;8.70;7.53;;;;;;;19.78;70.43;100303.27;1731666;82;21416;-68
2022/08/26 01:10:26;;;;;;;7.78;7.08;;;;;;;19.76;70.54;100301.34;1726353;82;21005;-69
2022/08/26 01:12:58;;;;;;;7.47;6.65;;;;;;;19.74;70.56;100302.14;1724178;82;21067;-68
2022/08/26 01:15:30;;;;;;;8.10;7.30;;;;;;;19.74;70.55;100298.59;1722669;82;20994;-68
2022/08/26 01:17:59;;;;;;;7.45;6.85;;;;;;;19.73;70.52;100297.78;1726131;82;21406;-69
2022/08/26 01:20:30;;;;;;;9.33;7.40;;;;;;;19.73;70.64;100295.08;1726034;82;21091;-68
2022/08/26 01:23:05;;;;;;;8.73;7.92;;;;;;;19.74;70.55;100295.38;1726224;82;21059;-67
2022/08/26 01:25:41;;;;;;;9.05;8.25;;;;;;;19.76;70.51;100285.64;1724266;82;21025;-68
2022/08/26 01:28:15;;;;;;;8.30;7.42;;;;;;;19.79;70.43;100295.42;1723964;82;20981;-67
2022/08/26 01:30:44;;;;;;;8.05;7.25;;;;;;;19.80;70.45;100295.72;1726215;82;21518;-67
2022/08/26 01:33:15;;;;;;;8.35;7.50;;;;;;;19.83;68.89;100296.58;1724163;82;20970;-67
2022/08/26 01:35:45;;;;;;;8.13;7.40;;;;;;;19.89;69.48;100292.57;1725837;82;21089;-66
2022/08/26 01:38:12;;;;;;;8.43;7.50;;;;;;;19.91;69.66;100289.08;1727089;82;21487;-69
2022/08/26 01:40:42;;;;;;;8.68;7.97;;;;;;;19.92;69.74;100292.08;1720644;82;21053;-67
2022/08/26 01:43:15;;;;;;;8.53;7.75;;;;;;;19.93;69.77;100289.13;1732089;82;21441;-67
2022/08/26 01:45:45;;;;;;;7.87;7.17;;;;;;;19.94;69.57;100288.05;1724351;81;20977;-70
2022/08/26 01:48:16;;;;;;;13.65;7.85;;;;;;;19.94;69.56;100288.05;1724010;82;21018;-68
2022/08/26 01:50:44;;;;;;;7.75;6.97;;;;;;;19.92;69.58;100282.61;1727991;82;21124;-66
2022/08/26 01:53:14;;;;;;;8.33;7.55;;;;;;;19.90;69.74;100288.27;1707004;82;21027;-71
2022/08/26 01:55:44;;;;;;;7.95;7.15;;;;;;;19.89;69.85;100288.51;1734329;80;20986;-67
2022/08/26 01:58:24;;;;;;;7.90;7.10;;;;;;;19.84;69.78;100282.52;1765982;80;21098;-69
2022/08/26 02:00:51;;;;;;;10.68;7.90;;;;;;;19.77;69.93;100277.28;1754073;80;21052;-71
2022/08/26 02:03:21;;;;;;;9.80;7.15;;;;;;;19.75;70.04;100281.31;1757544;80;21020;-68
2022/08/26 02:05:58;;;;;;;8.43;7.62;;;;;;;19.74;70.20;100278.31;1768283;80;20931;-66
2022/08/26 02:08:32;;;;;;;7.28;6.67;;;;;;;19.70;70.22;100280.66;1752930;80;21438;-68
2022/08/26 02:10:59;;;;;;;9.83;7.85;;;;;;;19.65;70.28;100279.27;1753974;80;21470;-67
2022/08/26 02:13:28;;;;;;;;;;;;;;;19.60;70.56;100277.30;1760154;80;20981;-68
2022/08/26 02:15:59;;;;;;;9.65;8.75;;;;;;;19.55;70.71;100277.25;1757515;80;20095;-68
2022/08/26 02:18:27;;;;;;;7.95;7.15;;;;;;;19.44;70.96;100282.22;1754781;80;21078;-68
2022/08/26 02:20:55;;;;;;;10.58;8.08;;;;;;;19.39;71.17;100281.60;1760032;80;21060;-68
2022/08/26 02:23:22;;;;;;;8.13;6.83;;;;;;;19.37;71.33;100282.39;1737638;81;21022;-68
2022/08/26 02:26:03;;;;;;;8.58;7.55;;;;;;;19.36;71.29;100286.68;1758965;80;21026;-67
2022/08/26 02:28:35;;;;;;;13.28;7.80;;;;;;;19.34;71.24;100277.46;1754401;80;20978;-69
2022/08/26 02:31:02;;;;;;;7.95;7.17;;;;;;;19.35;71.17;100287.22;1766844;80;21038;-67
2022/08/26 02:33:29;;;;;;;14.20;8.05;;;;;;;19.35;71.43;100287.77;1766607;80;20976;-69
2022/08/26 02:35:55;;;;;;;9.10;7.97;;;;;;;19.30;71.52;100286.33;1758580;80;20982;-68
2022/08/26 02:38:22;;;;;;;7.92;7.22;;;;;;;19.29;71.57;100286.87;1756415;80;21504;-68
2022/08/26 02:40:48;;;;;;;8.88;7.75;;;;;;;19.26;71.69;100288.16;1757917;80;21025;-68
2022/08/26 02:43:14;;;;;;;;;;;;;;;19.22;71.88;100282.97;1759483;80;21009;-68
2022/08/26 02:45:40;;;;;;;8.60;7.80;;;;;;;19.19;72.03;100287.54;1758925;80;20141;-68
2022/08/26 02:48:12;;;;;;;9.68;8.75;;;;;;;19.11;72.24;100281.72;1761295;80;21050;-68
2022/08/26 02:50:39;;;;;;;9.00;8.10;;;;;;;19.07;72.46;100285.44;1762911;80;21101;-66
2022/08/26 02:53:06;;;;;;;10.05;9.03;;;;;;;19.03;72.63;100282.95;1757368;80;21022;-73
2022/08/26 02:55:33;;;;;;;8.85;8.05;;;;;;;19.02;72.86;100290.75;1731576;80;20935;-68
2022/08/26 02:58:00;;;;;;;8.88;8.08;;;;;;;19.00;73.06;100291.53;1763139;80;21030;-68
2022/08/26 03:00:27;;;;;;;9.93;8.70;;;;;;;18.99;73.26;100289.91;1756782;80;20967;-72
2022/08/26 03:02:53;;;;;;;9.40;8.25;;;;;;;18.97;73.50;100291.50;1751001;80;21063;-68
2022/08/26 03:05:21;;;;;;;8.50;7.70;;;;;;;18.66;73.84;100251.78;1755164;80;20974;-68
2022/08/26 03:07:48;;;;;;;9.18;8.28;;;;;;;18.94;73.98;100293.33;1756237;80;21526;-67
2022/08/26 03:10:16;;;;;;;8.05;7.25;;;;;;;18.93;74.04;100300.32;1756182;80;21120;-67
2022/08/26 03:12:44;;;;;;;9.55;8.75;;;;;;;18.91;73.98;100299.24;1756889;80;21545;-67
2022/08/26 03:15:13;;;;;;;8.70;7.80;;;;;;;18.91;74.07;100299.24;1759702;80;21060;-66
2022/08/26 03:17:40;;;;;;;10.32;8.80;;;;;;;18.89;74.08;100306.73;1763345;80;20935;-67
2022/08/26 03:20:10;;;;;;;11.03;8.68;;;;;;;18.89;74.15;100304.04;1762779;80;20975;-68
2022/08/26 03:22:38;;;;;;;12.82;8.50;;;;;;;18.91;74.29;100309.20;1755685;80;21010;-67
2022/08/26 03:25:08;;;;;;;8.65;7.92;;;;;;;18.92;74.44;100314.36;1759443;80;21058;-72
2022/08/26 03:27:36;;;;;;;9.38;8.50;;;;;;;18.94;74.43;100310.08;1754119;80;21057;-67
2022/08/26 03:32:48;;;;;;;8.95;8.18;;;;;;;19.02;74.83;100309.66;1762894;80;21546;-67
2022/08/26 03:35:15;;;;;;;;;;;;;;;19.10;74.40;100307.08;1764505;80;21413;-67
2022/08/26 03:37:43;;;;;;;8.90;8.10;;;;;;;19.18;74.27;100310.20;1758224;80;20374;-69
2022/08/26 03:40:10;;;;;;;;;;;;;;;19.24;73.74;100313.80;1759854;80;21577;-68
2022/08/26 03:42:39;;;;;;;8.83;8.00;;;;;;;19.37;73.19;100314.01;1757384;80;20468;-69
2022/08/26 03:45:09;;;;;;;13.32;7.95;;;;;;;19.51;72.85;100319.34;1766890;80;20939;-69
2022/08/26 03:47:38;;;;;;;9.55;7.42;;;;;;;19.77;71.79;100316.49;1755247;80;21641;-68
2022/08/26 03:50:08;;;;;;;8.70;7.80;;;;;;;20.09;70.79;100325.29;1758655;80;21097;-70
2022/08/26 03:52:35;;;;;;;7.95;7.20;;;;;;;20.42;69.40;100320.27;1756456;80;21068;-70
2022/08/26 03:55:05;;;;;;;11.75;8.65;;;;;;;20.72;67.87;100309.51;1758794;80;22343;-68
2022/08/26 03:57:31;;;;;;;8.03;7.22;;;;;;;21.06;67.01;100320.62;1759824;80;21021;-68
2022/08/26 03:59:57;;;;;;;9.35;6.78;;;;;;;21.41;64.54;100317.91;1766797;80;21140;-68
2022/08/26 04:02:25;;;;;;;9.38;7.55;;;;;;;21.67;63.19;100309.43;1760236;80;20943;-68
2022/08/26 04:04:51;;;;;;;10.08;6.67;;;;;;;21.90;62.37;100307.63;1755625;80;21506;-71
2022/08/26 04:07:17;;;;;;;7.50;6.75;;;;;;;22.21;59.66;100318.63;1756124;80;21065;-68
2022/08/26 04:09:45;;;;;;;9.15;6.47;;;;;;;22.51;59.73;100310.34;1760748;80;21034;-68
2022/08/26 04:12:14;;;;;;;11.68;5.72;;;;;;;22.86;53.81;100307.38;1767598;80;21016;-68
2022/08/26 04:14:41;;;;;;;8.50;6.05;;;;;;;23.29;54.85;100295.16;1757497;80;21096;-66
2022/08/26 04:17:07;;;;;;;7.60;5.70;;;;;;;23.74;53.06;100295.89;1778260;79;21086;-68
2022/08/26 04:19:33;;;;;;;7.87;6.22;;;;;;;24.09;51.91;100292.22;1746430;81;21575;-67
2022/08/26 04:22:01;;;;;;;7.60;6.85;;;;;;;24.37;51.55;100284.45;1746052;81;21011;-67
2022/08/26 04:24:27;;;;;;;9.10;7.03;;;;;;;24.67;50.42;100285.63;1755011;81;21459;-67
2022/08/26 04:26:55;;;;;;;9.30;6.87;;;;;;;24.96;49.16;100286.77;1756254;80;21098;-68
2022/08/26 04:29:24;;;;;;;9.83;6.78;;;;;;;25.19;48.29;100288.75;1767586;80;21164;-68
2022/08/26 04:31:54;;;;;;;8.70;6.15;;;;;;;25.37;47.22;100281.80;1756313;80;21034;-69
2022/08/26 04:34:22;;;;;;;7.50;5.55;;;;;;;25.57;46.66;100285.41;1725831;80;21537;-67
2022/08/26 04:36:50;;;;;;;10.55;5.55;;;;;;;25.78;45.06;100290.08;1733742;81;21009;-68
2022/08/26 04:39:19;;;;;;;7.22;5.20;;;;;;;25.83;43.58;100289.46;1721508;81;20976;-69
2022/08/26 04:41:47;;;;;;;6.17;5.58;;;;;;;25.88;43.86;100290.50;1721474;80;21109;-67
2022/08/26 04:44:16;;;;;;;6.83;5.55;;;;;;;25.94;44.71;100282.55;1722443;80;21028;-68
2022/08/26 04:46:42;;;;;;;18.42;6.78;;;;;;;26.26;43.31;100287.84;1670022;84;21074;-68
2022/08/26 04:49:09;;;;;;;11.88;5.12;;;;;;;26.54;42.51;100290.17;1709202;83;21066;-67
2022/08/26 04:51:36;;;;;;;8.63;5.37;;;;;;;26.77;41.85;100287.13;1715668;83;21006;-67
2022/08/26 04:54:05;;;;;;;7.55;5.42;;;;;;;26.85;40.59;100280.17;1701354;83;21633;-68
2022/08/26 04:56:36;;;;;;;12.18;5.37;;;;;;;26.82;40.79;100284.86;1640630;82;21022;-68
2022/08/26 04:59:06;;;;;;;7.50;5.65;;;;;;;26.75;40.21;100283.89;1624977;86;21015;-68
2022/08/26 05:01:34;;;;;;;7.50;5.65;;;;;;;26.96;40.52;100275.59;1649633;78;21120;-67
2022/08/26 05:04:01;;;;;;;5.17;4.40;;;;;;;27.16;39.60;100283.17;1647015;85;21002;-70
2022/08/26 05:06:28;;;;;;;7.40;4.42;;;;;;;27.36;38.73;100280.66;1631121;85;21549;-68
2022/08/26 05:08:55;;;;;;;5.05;4.55;;;;;;;27.67;37.61;100275.95;1671774;82;21069;-71
2022/08/26 05:11:22;;;;;;;4.97;4.25;;;;;;;27.80;37.33;100280.61;1644562;85;21188;-70
2022/08/26 05:13:49;;;;;;;8.88;5.03;;;;;;;27.90;37.10;100277.70;1646916;85;21045;-68
2022/08/26 05:16:15;;;;;;;5.28;4.78;;;;;;;27.98;36.85;100284.39;1644394;85;21546;-68
2022/08/26 05:18:44;;;;;;;7.53;4.50;;;;;;;28.10;36.62;100281.11;1734835;79;21110;-69
2022/08/26 05:21:25;;;;;;;4.87;4.47;;;;;;;28.19;36.20;100285.32;1738113;81;21069;-67
2022/08/26 05:23:53;;;;;;;5.20;4.67;;;;;;;28.22;36.37;100275.93;1754852;80;20989;-68
2022/08/26 05:26:23;;;;;;;6.53;5.03;;;;;;;28.51;36.05;100274.14;1736004;81;21112;-67
2022/08/26 05:28:51;;;;;;;8.98;4.67;;;;;;;28.80;35.06;100277.07;1751697;80;21041;-68
2022/08/26 05:31:23;;;;;;;4.08;3.50;;;;;;;28.97;34.93;100277.75;1755735;80;21068;-69
2022/08/26 05:33:49;;;;;;;5.78;4.50;;;;;;;29.14;34.25;100271.58;1725777;80;21020;-68
2022/08/26 05:36:20;;;;;;;6.55;3.98;;;;;;;29.26;33.72;100270.98;1729837;79;21063;-68
2022/08/26 05:38:46;;;;;;;5.30;3.60;;;;;;;29.45;33.41;100272.11;1713623;84;20999;-68
2022/08/26 05:41:19;;;;;;;7.72;4.22;;;;;;;29.56;32.18;100272.65;1700480;84;22244;-68
2022/08/26 05:43:45;;;;;;;10.10;3.72;;;;;;;29.51;32.41;100281.82;1741836;79;21136;-67
2022/08/26 05:46:11;;;;;;;8.60;3.70;;;;;;;29.51;32.24;100281.82;1745410;80;21073;-68
2022/08/26 05:48:40;;;;;;;6.40;3.20;;;;;;;29.67;31.23;100280.27;1739815;80;21478;-70
2022/08/26 05:51:09;;;;;;;5.47;3.08;;;;;;;29.75;31.27;100288.89;1718113;79;21094;-69
2022/08/26 05:53:39;;;;;;;5.08;4.67;;;;;;;29.69;31.69;100279.95;1729702;81;21069;-67
2022/08/26 05:56:07;;;;;;;6.95;3.35;;;;;;;29.63;31.47;100280.67;1752586;80;21116;-68
2022/08/26 05:58:35;;;;;;;9.55;3.33;;;;;;;29.54;31.15;100288.63;1740697;81;21019;-68
2022/08/26 06:01:06;;;;;;;3.55;3.10;;;;;;;29.58;30.74;100287.67;1705806;81;21085;-69
2022/08/26 06:03:37;;;;;;;7.37;3.37;;;;;;;29.64;30.64;100291.88;1712861;83;20985;-67
2022/08/26 06:06:06;;;;;;;3.37;2.67;;;;;;;29.75;30.13;100286.14;1698552;82;21070;-69
2022/08/26 06:08:34;;;;;;;12.45;3.40;;;;;;;29.77;30.16;100283.89;1683562;84;21025;-69
2022/08/26 06:11:03;;;;;;;5.50;3.37;;;;;;;29.79;30.14;100289.88;1658093;84;21156;-67
2022/08/26 06:13:33;;;;;;;3.30;3.00;;;;;;;29.81;29.87;100282.92;1640472;85;21026;-69
2022/08/26 06:16:05;;;;;;;5.62;2.80;;;;;;;29.97;29.12;100286.05;1627736;86;21185;-69
2022/08/26 06:18:36;;;;;;;5.87;2.85;;;;;;;30.01;29.16;100288.39;1643748;80;21238;-69
2022/08/26 06:21:16;;;;;;;4.55;2.70;;;;;;;30.13;29.12;100290.50;1639395;85;21522;-69
2022/08/26 06:26:31;;;;;;;9.95;2.72;;;;;;;29.92;29.37;100276.56;1698424;84;21545;-70
2022/08/26 06:28:58;;;;;;;5.90;2.95;;;;;;;29.43;30.30;100279.86;1689264;84;21517;-68
2022/08/26 06:31:25;;;;;;;6.10;3.08;;;;;;;29.06;30.76;100282.70;1690354;82;21436;-68
2022/08/26 06:33:53;;;;;;;8.55;3.75;;;;;;;28.98;30.89;100283.47;1713518;81;21045;-68
2022/08/26 06:36:26;;;;;;;6.70;2.67;;;;;;;29.11;30.59;100281.77;1709920;83;21048;-68
2022/08/26 06:38:56;;;;;;;3.52;2.30;;;;;;;29.25;30.24;100278.42;1714947;81;21103;-68
2022/08/26 06:41:24;;;;;;;6.95;2.77;;;;;;;29.30;29.84;100270.59;1727840;81;21561;-71
2022/08/26 06:43:51;;;;;;;5.90;2.72;;;;;;;29.40;30.08;100272.25;1725885;81;21033;-69
2022/08/26 06:46:20;;;;;;;12.45;2.70;;;;;;;29.55;30.73;100266.33;1701479;78;21116;-73
2022/08/26 06:48:48;;;;;;;6.90;2.98;;;;;;;29.86;29.58;100266.86;1698633;82;21667;-70
2022/08/26 06:51:19;;;;;;;5.33;3.08;;;;;;;30.07;28.92;100260.19;1712831;78;21168;-70
2022/08/26 06:53:47;;;;;;;8.13;1.98;;;;;;;30.15;28.38;100261.33;1702744;82;21052;-69
2022/08/26 06:58:51;;;;;;;7.95;2.30;;;;;;;30.30;28.04;100257.30;1796318;78;22739;-70
2022/08/26 07:01:23;;;;;;;7.28;2.87;;;;;;;30.34;27.63;100253.59;1771173;80;21059;-69
2022/08/26 07:03:52;;;;;;;9.70;2.30;;;;;;;30.45;27.64;100260.38;1681723;80;21081;-68
2022/08/26 07:06:19;;;;;;;7.45;2.05;;;;;;;30.55;27.70;100257.06;1676528;84;21525;-70
2022/08/26 07:08:51;;;;;;;17.62;2.30;;;;;;;30.44;27.55;100257.41;1662730;84;21530;-71
2022/08/26 07:11:19;;;;;;;10.38;3.15;;;;;;;30.22;27.90;100262.46;1697091;81;21118;-70
2022/08/26 07:13:46;;;;;;;6.05;2.20;;;;;;;30.05;28.32;100270.13;1702691;83;21066;-70
2022/08/26 07:16:16;;;;;;;6.95;2.20;;;;;;;29.83;28.31;100268.87;1702304;83;21551;-71
2022/08/26 07:18:45;;;;;;;11.38;3.35;;;;;;;29.60;28.57;100268.13;1698101;83;21117;-70
2022/08/26 07:21:16;;;;;;;7.70;3.15;;;;;;;29.43;28.81;100263.39;1680370;84;21539;-69
2022/08/26 07:23:42;;;;;;;7.80;2.35;;;;;;;29.28;29.29;100265.98;1714933;82;21029;-68
2022/08/26 07:26:15;;;;;;;7.17;1.90;;;;;;;29.09;29.49;100264.24;1684236;83;21059;-69
2022/08/26 07:28:43;;;;;;;8.35;1.80;;;;;;;28.87;29.87;100267.81;1702931;83;21042;-68
2022/08/26 07:31:13;;;;;;;5.05;2.42;;;;;;;28.71;29.71;100270.72;1704045;83;20995;-68
2022/08/26 07:33:41;;;;;;;5.35;2.92;;;;;;;28.51;30.48;100265.92;1686168;82;21279;-69
2022/08/26 07:36:10;;;;;;;5.08;2.15;;;;;;;28.30;30.74;100253.27;1643974;85;21078;-69
2022/08/26 07:38:40;;;;;;;5.87;1.95;;;;;;;28.17;31.08;100251.94;1640631;86;21080;-69
2022/08/26 07:41:07;;;;;;;5.22;2.85;;;;;;;28.08;31.85;100249.11;1629227;86;20962;-68
2022/08/26 07:43:36;;;;;;;4.47;2.05;;;;;;;28.04;31.75;100237.95;1649030;85;21168;-70
2022/08/26 07:46:04;;;;;;;15.10;1.92;;;;;;;28.02;32.41;100246.23;1637480;85;21060;-69
2022/08/26 07:48:30;;;;;;;5.78;2.08;;;;;;;27.93;31.91;100246.14;1637233;85;21628;-68
2022/08/26 07:50:57;;;;;;;6.17;1.75;;;;;;;27.91;31.79;100240.16;1618486;87;21506;-68
2022/08/26 07:53:23;;;;;;;8.05;1.92;;;;;;;27.93;31.23;100244.23;1664654;84;21511;-70
2022/08/26 07:55:51;;;;;;;8.60;2.90;;;;;;;27.93;31.53;100255.73;1673168;81;21547;-69
2022/08/26 07:58:18;;;;;;;6.28;1.77;;;;;;;27.93;31.28;100243.41;1657331;85;21017;-69
2022/08/26 08:00:46;;;;;;;17.12;2.33;;;;;;;27.95;30.85;100252.12;1663661;83;21021;-69
2022/08/26 08:03:13;;;;;;;11.78;1.67;;;;;;;27.91;30.89;100242.91;1723483;82;20987;-68
2022/08/26 08:05:40;;;;;;;9.23;2.60;;;;;;;27.88;31.06;100234.72;1722937;83;21529;-70
2022/08/26 08:08:09;;;;;;;18.37;2.55;;;;;;;27.89;31.07;100244.58;1694783;83;21132;-68
2022/08/26 08:10:36;;;;;;;9.28;1.98;;;;;;;27.90;31.06;100233.08;1685844;83;21062;-70
2022/08/26 08:13:05;;;;;;;8.28;1.87;;;;;;;27.93;30.77;100222.86;1654196;83;21021;-68
2022/08/26 08:15:33;;;;;;;8.90;1.50;;;;;;;27.98;30.58;100230.98;1739080;80;21132;-71
2022/08/26 08:18:01;;;;;;;6.60;1.42;;;;;;;28.02;30.39;100221.02;1771586;80;21458;-72
2022/08/26 08:20:27;;;;;;;6.92;1.07;;;;;;;28.05;30.64;100219.58;1769337;80;21074;-70
2022/08/26 08:22:54;;;;;;;5.62;2.45;;;;;;;28.10;29.94;100216.73;1721170;79;21033;-71
2022/08/26 08:25:22;;;;;;;8.03;1.42;;;;;;;28.14;29.90;100213.08;1700020;82;21092;-69
2022/08/26 08:27:49;;;;;;;10.32;1.82;;;;;;;28.19;30.29;100210.77;1693007;83;21126;-68
2022/08/26 08:30:19;;;;;;;6.80;1.67;;;;;;;28.28;29.57;100219.08;1708056;81;21049;-68
2022/08/26 08:32:45;;;;;;;10.72;1.35;;;;;;;28.32;29.21;100222.23;1709694;81;21033;-70
2022/08/26 08:35:15;;;;;;;6.10;1.00;;;;;;;28.30;28.62;100219.57;1714107;81;21534;-70
2022/08/26 08:37:42;;;;;;;8.50;1.30;;;;;;;28.29;28.79;100213.83;1681085;82;21178;-72
2022/08/26 08:40:11;;;;;;;11.45;1.50;;;;;;;28.30;28.84;100212.15;1661323;84;21534;-70
2022/08/26 08:42:58;;;;;;;12.20;1.67;;;;;;;28.34;28.94;100221.36;1662318;84;21645;-68
2022/08/26 08:45:33;;;;;;;;;;;;;;;28.39;28.83;100205.38;1691102;83;20961;-70
2022/08/26 08:48:04;;;;;;;4.08;1.27;;;;;;;28.43;28.98;100200.88;1690812;83;20109;-69
2022/08/26 08:51:09;;;;;;;8.45;0.82;;;;;;;28.41;28.78;100204.50;1688812;83;21037;-72
2022/08/26 08:53:40;;;;;;;5.58;1.40;;;;;;;28.44;28.62;100205.23;1685868;83;21017;-71
2022/08/26 08:56:33;;;;;;;2.42;0.62;;;;;;;28.48;28.93;100188.43;1699186;80;21077;-69
2022/08/26 08:59:11;;;;;;;9.50;1.50;;;;;;;28.57;28.87;100190.44;1747495;80;21151;-68
2022/08/26 09:02:02;;;;;;;8.53;1.42;;;;;;;28.68;28.12;100183.00;1733085;78;21084;-70
2022/08/26 09:04:52;;;;;;;6.78;0.95;;;;;;;28.78;27.82;100183.30;1681651;83;21090;-70
2022/08/26 09:07:28;;;;;;;3.92;0.85;;;;;;;28.87;27.46;100178.66;1692262;83;20999;-74
2022/08/26 09:10:01;;;;;;;3.90;1.30;;;;;;;28.95;27.22;100190.80;1688853;83;21066;-71
2022/08/26 09:12:31;;;;;;;8.33;1.07;;;;;;;28.99;26.82;100189.61;1703253;81;21097;-71
2022/08/26 09:15:06;;;;;;;3.20;0.57;;;;;;;28.99;26.78;100180.02;1723172;82;21156;-69
2022/08/26 09:17:58;;;;;;;12.63;1.60;;;;;;;29.02;26.82;100194.48;1667167;84;21046;-72
2022/08/26 09:20:52;;;;;;;6.22;0.75;;;;;;;29.06;26.45;100174.31;1721436;82;21547;-70
2022/08/26 09:23:18;;;;;;;5.22;1.17;;;;;;;29.12;26.14;100174.98;1721088;81;21224;-68
2022/08/26 09:26:00;;;;;;;8.48;0.40;;;;;;;29.18;25.82;100169.65;1727353;81;20990;-69
2022/08/26 09:28:29;;;;;;;5.08;0.47;;;;;;;29.26;24.44;100182.58;1734754;81;21194;-71
2022/08/26 09:31:13;;;;;;;5.97;0.40;;;;;;;29.32;23.41;100179.13;1739397;80;21130;-73
2022/08/26 09:33:41;;;;;;;3.72;0.68;;;;;;;29.33;23.21;100173.06;1737451;81;21074;-69
2022/08/26 09:36:34;;;;;;;1.27;0.37;;;;;;;29.36;23.45;100164.20;1711410;82;21172;-70
2022/08/26 09:39:01;;;;;;;4.62;0.40;;;;;;;29.44;23.51;100153.80;1710663;81;21041;-69
2022/08/26 09:41:32;;;;;;;10.82;0.40;;;;;;;29.54;22.79;100181.55;1726592;81;21015;-70
2022/08/26 09:44:13;;;;;;;5.33;1.00;;;;;;;29.60;22.72;100182.42;1735780;81;21456;-70
2022/08/26 09:46:45;;;;;;;6.08;0.40;;;;;;;29.60;21.83;100170.64;1720000;81;20998;-71
2022/08/26 09:49:34;;;;;;;6.58;0.60;;;;;;;29.60;22.40;100175.56;1763447;79;21124;-71
2022/08/26 09:52:22;;;;;;;5.30;0.57;;;;;;;29.64;22.43;100174.36;1769248;79;21025;-69
2022/08/26 09:55:20;;;;;;;3.10;0.68;;;;;;;29.67;22.59;100164.12;1762125;79;20999;-72
2022/08/26 09:57:53;;;;;;;16.40;0.55;;;;;;;29.70;22.69;100173.90;1781913;79;21072;-71
2022/08/26 10:00:37;;;;;;;8.10;0.62;;;;;;;29.70;22.10;100179.94;1751709;79;21090;-70
2022/08/26 10:03:08;;;;;;;1.98;0.35;;;;;;;29.64;22.00;100171.05;1717449;81;21086;-71
2022/08/26 10:05:55;;;;;;;4.47;0.20;;;;;;;29.62;21.42;100170.55;1729782;81;21085;-71
2022/08/26 10:08:39;;;;;;;2.22;0.20;;;;;;;29.64;20.89;100170.23;1720580;81;21010;-69
2022/08/26 10:11:29;;;;;;;1.62;0.45;;;;;;;29.66;20.37;100152.30;1719923;80;22181;-69
2022/08/26 10:14:11;;;;;;;2.08;0.40;;;;;;;29.69;20.40;100157.16;1681543;82;21134;-68
2022/08/26 10:17:10;;;;;;;4.53;0.30;;;;;;;29.70;20.30;100162.08;1735091;80;21531;-70
2022/08/26 10:19:48;;;;;;;2.75;0.30;;;;;;;29.69;20.39;100154.41;1755350;80;21076;-70
2022/08/26 10:22:25;;;;;;;6.85;0.53;;;;;;;29.75;20.51;100146.86;1749771;80;21302;-69
2022/08/26 10:24:56;;;;;;;5.10;0.40;;;;;;;29.83;20.55;100160.36;1728546;81;21041;-70
2022/08/26 10:27:38;;;;;;;1.30;0.30;;;;;;;29.87;20.24;100161.32;1753754;79;21598;-69
2022/08/26 10:30:12;;;;;;;2.22;0.10;;;;;;;29.91;19.61;100181.52;1743766;81;21039;-70
2022/08/26 10:32:53;;;;;;;4.20;0.33;;;;;;;29.88;19.67;100193.17;1758588;79;21128;-68
2022/08/26 10:35:19;;;;;;;4.75;0.10;;;;;;;29.83;20.26;100193.32;1767556;80;21525;-72
2022/08/26 10:37:54;;;;;;;4.37;0.30;;;;;;;29.81;20.34;100159.88;1776672;80;21485;-76
2022/08/26 10:40:33;;;;;;;2.15;0.30;;;;;;;29.84;20.16;100170.23;1755356;80;21009;-70
2022/08/26 10:43:17;;;;;;;2.27;0.23;;;;;;;29.88;20.53;100173.94;1769266;80;20959;-68
2022/08/26 10:45:51;;;;;;;3.42;0.20;;;;;;;29.92;20.83;100192.77;1704898;80;21484;-70
2022/08/26 10:48:26;;;;;;;1.90;0.20;;;;;;;29.94;20.82;100159.48;1662815;84;21027;-70
2022/08/26 10:50:55;;;;;;;4.78;0.15;;;;;;;29.94;20.30;100154.78;1625000;81;21589;-72
2022/08/26 10:53:54;;;;;;;4.35;0.37;;;;;;;29.96;18.49;100173.70;1668636;84;21027;-70
2022/08/26 10:56:51;;;;;;;2.40;0.30;;;;;;;29.93;18.96;100165.52;1704506;81;20959;-70
2022/08/26 10:59:45;;;;;;;0.45;0.20;;;;;;;29.93;19.23;100172.96;1713224;79;21077;-69
2022/08/26 11:02:40;;;;;;;1.27;0.20;;;;;;;29.90;19.09;100159.31;1688609;82;21534;-70
2022/08/26 11:05:22;;;;;;;2.98;0.15;;;;;;;29.89;19.30;100160.43;1702288;82;20990;-70
2022/08/26 11:07:55;;;;;;;3.95;0.37;;;;;;;29.92;18.46;100169.41;1698137;82;20959;-70
2022/08/26 11:10:39;;;;;;;0.65;0.23;;;;;;;30.00;18.92;100159.55;1728655;79;21074;-69
2022/08/26 11:13:07;;;;;;;1.75;0.13;;;;;;;30.00;19.06;100156.23;1733514;81;21014;-71
2022/08/26 11:15:54;;;;;;;6.12;0.23;;;;;;;30.00;19.06;100143.86;1733560;81;21061;-68
2022/08/26 11:18:39;;;;;;;2.00;0.40;;;;;;;30.05;18.12;100162.14;1706867;83;21065;-70
2022/08/26 11:21:43;;;;;;;3.77;0.20;;;;;;;30.06;19.92;100164.58;1720477;81;20930;-71
2022/08/26 11:24:43;;;;;;;3.10;0.90;;;;;;;30.01;20.09;100140.57;1656687;82;21487;-69
2022/08/26 11:27:26;;;;;;;2.15;0.30;;;;;;;29.94;20.65;100168.52;1677453;84;20966;-69
2022/08/26 11:30:15;;;;;;;4.83;0.53;;;;;;;29.85;21.36;100137.48;1697418;82;21165;-69
2022/08/26 11:32:47;;;;;;;9.58;0.53;;;;;;;29.73;21.39;100140.88;1690756;82;20958;-69
2022/08/26 11:35:23;;;;;;;3.72;0.70;;;;;;;29.68;21.36;100169.84;1744210;80;21118;-71
2022/08/26 11:38:01;;;;;;;6.03;0.28;;;;;;;29.70;20.71;100143.69;1759152;81;21002;-71
2022/08/26 11:40:37;;;;;;;2.02;0.42;;;;;;;29.73;20.54;100167.52;1766492;79;21129;-70
2022/08/26 11:43:07;;;;;;;1.65;0.40;;;;;;;29.75;21.09;100150.98;1771848;79;21394;-69
2022/08/26 11:45:45;;;;;;;6.25;0.57;;;;;;;29.78;21.62;100164.62;1777623;79;21461;-69
2022/08/26 11:48:29;;;;;;;10.98;0.53;;;;;;;29.78;21.88;100148.14;1771904;79;21127;-73
2022/08/26 11:51:05;;;;;;;2.52;0.60;;;;;;;29.79;21.62;100158.81;1770402;79;20981;-69
2022/08/26 11:53:39;;;;;;;2.67;0.40;;;;;;;29.79;21.70;100142.33;1784847;79;21002;-72